sensor_id;sensor_type;location;lat;lon;timestamp;P1;durP1;ratioP1;P2;durP2;ratioP2
43807;SDS011;29438;50.664;10.098;2023-05-07T00:00:18;4.07;;;2.45;;
43807;SDS011;29438;50.664;10.098;2023-05-07T00:02:44;4.88;;;2.67;;
43807;SDS011;29438;50.664;10.098;2023-05-07T00:05:10;4.13;;;2.63;;
43807;SDS011;29438;50.664;10.098;2023-05-07T00:07:36;3.95;;;2.47;;
43807;SDS011;29438;50.664;10.098;2023-05-07T00:10:02;4.95;;;2.95;;
43807;SDS011;29438;50.664;10.098;2023-05-07T00:12:28;5.30;;;2.72;;
43807;SDS011;29438;50.664;10.098;2023-05-07T00:14:58;5.35;;;2.78;;
43807;SDS011;29438;50.664;10.098;2023-05-07T00:17:24;5.10;;;2.83;;
43807;SDS011;29438;50.664;10.098;2023-05-07T00:19:50;7.15;;;2.50;;
43807;SDS011;29438;50.664;10.098;2023-05-07T00:22:15;4.78;;;2.88;;
43807;SDS011;29438;50.664;10.098;2023-05-07T00:24:41;4.07;;;2.63;;
43807;SDS011;29438;50.664;10.098;2023-05-07T00:27:07;4.35;;;2.72;;
43807;SDS011;29438;50.664;10.098;2023-05-07T00:29:32;4.93;;;3.08;;
43807;SDS011;29438;50.664;10.098;2023-05-07T00:31:58;4.78;;;3.00;;
43807;SDS011;29438;50.664;10.098;2023-05-07T00:34:23;5.70;;;3.05;;
43807;SDS011;29438;50.664;10.098;2023-05-07T00:36:49;5.10;;;3.10;;
43807;SDS011;29438;50.664;10.098;2023-05-07T00:39:14;7.40;;;3.67;;
43807;SDS011;29438;50.664;10.098;2023-05-07T00:41:40;4.93;;;3.30;;
43807;SDS011;29438;50.664;10.098;2023-05-07T00:44:05;5.72;;;3.42;;
43807;SDS011;29438;50.664;10.098;2023-05-07T00:46:31;5.20;;;3.50;;
43807;SDS011;29438;50.664;10.098;2023-05-07T00:48:57;6.93;;;3.90;;
43807;SDS011;29438;50.664;10.098;2023-05-07T00:51:24;6.70;;;3.92;;
43807;SDS011;29438;50.664;10.098;2023-05-07T00:53:52;8.95;;;4.78;;
43807;SDS011;29438;50.664;10.098;2023-05-07T00:56:18;7.95;;;4.93;;
43807;SDS011;29438;50.664;10.098;2023-05-07T00:58:46;7.43;;;4.85;;
43807;SDS011;29438;50.664;10.098;2023-05-07T01:01:12;7.03;;;4.40;;
43807;SDS011;29438;50.664;10.098;2023-05-07T01:03:37;8.85;;;5.32;;
43807;SDS011;29438;50.664;10.098;2023-05-07T01:06:03;8.80;;;5.57;;
43807;SDS011;29438;50.664;10.098;2023-05-07T01:08:30;10.32;;;6.15;;
43807;SDS011;29438;50.664;10.098;2023-05-07T01:10:57;10.02;;;5.90;;
43807;SDS011;29438;50.664;10.098;2023-05-07T01:13:23;9.82;;;5.80;;
43807;SDS011;29438;50.664;10.098;2023-05-07T01:15:49;9.55;;;5.88;;
43807;SDS011;29438;50.664;10.098;2023-05-07T01:18:15;9.02;;;5.80;;
43807;SDS011;29438;50.664;10.098;2023-05-07T01:20:41;9.02;;;6.05;;
43807;SDS011;29438;50.664;10.098;2023-05-07T01:23:07;10.02;;;5.90;;
43807;SDS011;29438;50.664;10.098;2023-05-07T01:25:33;9.52;;;5.90;;
43807;SDS011;29438;50.664;10.098;2023-05-07T01:27:59;10.60;;;6.13;;
43807;SDS011;29438;50.664;10.098;2023-05-07T01:30:26;10.43;;;6.38;;
43807;SDS011;29438;50.664;10.098;2023-05-07T01:32:56;10.98;;;6.40;;
43807;SDS011;29438;50.664;10.098;2023-05-07T01:35:35;11.07;;;6.78;;
43807;SDS011;29438;50.664;10.098;2023-05-07T01:38:05;12.70;;;7.03;;
43807;SDS011;29438;50.664;10.098;2023-05-07T01:40:31;12.10;;;7.18;;
43807;SDS011;29438;50.664;10.098;2023-05-07T01:42:59;11.88;;;7.30;;
43807;SDS011;29438;50.664;10.098;2023-05-07T01:45:25;11.18;;;6.85;;
43807;SDS011;29438;50.664;10.098;2023-05-07T01:47:50;10.40;;;6.50;;
43807;SDS011;29438;50.664;10.098;2023-05-07T01:50:18;10.88;;;6.47;;
43807;SDS011;29438;50.664;10.098;2023-05-07T01:52:45;11.80;;;6.70;;
43807;SDS011;29438;50.664;10.098;2023-05-07T01:55:11;10.82;;;6.95;;
43807;SDS011;29438;50.664;10.098;2023-05-07T01:57:37;10.82;;;6.45;;
43807;SDS011;29438;50.664;10.098;2023-05-07T02:00:03;11.73;;;7.30;;
43807;SDS011;29438;50.664;10.098;2023-05-07T02:02:30;11.05;;;6.65;;
43807;SDS011;29438;50.664;10.098;2023-05-07T02:04:55;11.05;;;6.65;;
43807;SDS011;29438;50.664;10.098;2023-05-07T02:07:21;10.90;;;6.47;;
43807;SDS011;29438;50.664;10.098;2023-05-07T02:09:46;11.40;;;6.80;;
43807;SDS011;29438;50.664;10.098;2023-05-07T02:12:12;11.52;;;7.07;;
43807;SDS011;29438;50.664;10.098;2023-05-07T02:14:37;11.40;;;6.60;;
43807;SDS011;29438;50.664;10.098;2023-05-07T02:17:03;11.38;;;7.15;;
43807;SDS011;29438;50.664;10.098;2023-05-07T02:19:28;12.65;;;7.05;;
43807;SDS011;29438;50.664;10.098;2023-05-07T02:21:54;11.85;;;6.93;;
43807;SDS011;29438;50.664;10.098;2023-05-07T02:24:20;10.43;;;6.53;;
43807;SDS011;29438;50.664;10.098;2023-05-07T02:26:45;10.40;;;6.28;;
43807;SDS011;29438;50.664;10.098;2023-05-07T02:29:11;11.10;;;6.68;;
43807;SDS011;29438;50.664;10.098;2023-05-07T02:31:36;11.57;;;7.25;;
43807;SDS011;29438;50.664;10.098;2023-05-07T02:34:02;12.07;;;6.78;;
43807;SDS011;29438;50.664;10.098;2023-05-07T02:36:27;11.75;;;6.80;;
43807;SDS011;29438;50.664;10.098;2023-05-07T02:38:53;13.00;;;7.07;;
43807;SDS011;29438;50.664;10.098;2023-05-07T02:41:19;12.40;;;7.22;;
43807;SDS011;29438;50.664;10.098;2023-05-07T02:43:45;14.30;;;8.18;;
43807;SDS011;29438;50.664;10.098;2023-05-07T02:46:11;14.73;;;9.15;;
43807;SDS011;29438;50.664;10.098;2023-05-07T02:48:36;15.82;;;9.25;;
43807;SDS011;29438;50.664;10.098;2023-05-07T02:51:02;17.20;;;9.27;;
43807;SDS011;29438;50.664;10.098;2023-05-07T02:53:28;15.20;;;9.18;;
43807;SDS011;29438;50.664;10.098;2023-05-07T02:55:55;16.38;;;9.75;;
43807;SDS011;29438;50.664;10.098;2023-05-07T02:58:22;17.98;;;9.90;;
43807;SDS011;29438;50.664;10.098;2023-05-07T03:00:48;18.67;;;10.10;;
43807;SDS011;29438;50.664;10.098;2023-05-07T03:03:14;17.60;;;10.55;;
43807;SDS011;29438;50.664;10.098;2023-05-07T03:05:40;17.92;;;10.48;;
43807;SDS011;29438;50.664;10.098;2023-05-07T03:08:06;18.40;;;10.50;;
43807;SDS011;29438;50.664;10.098;2023-05-07T03:10:32;18.63;;;10.40;;
43807;SDS011;29438;50.664;10.098;2023-05-07T03:12:58;17.08;;;9.75;;
43807;SDS011;29438;50.664;10.098;2023-05-07T03:15:23;17.35;;;10.50;;
43807;SDS011;29438;50.664;10.098;2023-05-07T03:17:49;17.08;;;9.95;;
43807;SDS011;29438;50.664;10.098;2023-05-07T03:20:14;17.05;;;10.43;;
43807;SDS011;29438;50.664;10.098;2023-05-07T03:22:40;20.33;;;11.10;;
43807;SDS011;29438;50.664;10.098;2023-05-07T03:25:06;19.58;;;10.57;;
43807;SDS011;29438;50.664;10.098;2023-05-07T03:27:32;22.75;;;12.10;;
43807;SDS011;29438;50.664;10.098;2023-05-07T03:29:58;22.38;;;11.55;;
43807;SDS011;29438;50.664;10.098;2023-05-07T03:32:23;21.35;;;11.60;;
43807;SDS011;29438;50.664;10.098;2023-05-07T03:34:49;21.73;;;11.85;;
43807;SDS011;29438;50.664;10.098;2023-05-07T03:37:15;20.58;;;11.38;;
43807;SDS011;29438;50.664;10.098;2023-05-07T03:39:40;20.27;;;11.65;;
43807;SDS011;29438;50.664;10.098;2023-05-07T03:42:06;19.70;;;11.63;;
43807;SDS011;29438;50.664;10.098;2023-05-07T03:44:31;20.88;;;11.15;;
43807;SDS011;29438;50.664;10.098;2023-05-07T03:46:57;20.20;;;11.55;;
43807;SDS011;29438;50.664;10.098;2023-05-07T03:49:22;20.15;;;11.25;;
43807;SDS011;29438;50.664;10.098;2023-05-07T03:51:47;20.60;;;11.18;;
43807;SDS011;29438;50.664;10.098;2023-05-07T03:54:13;20.08;;;10.90;;
43807;SDS011;29438;50.664;10.098;2023-05-07T03:56:38;20.35;;;11.52;;
43807;SDS011;29438;50.664;10.098;2023-05-07T03:59:04;19.60;;;11.38;;
43807;SDS011;29438;50.664;10.098;2023-05-07T04:01:30;19.92;;;10.68;;
43807;SDS011;29438;50.664;10.098;2023-05-07T04:03:56;20.42;;;11.40;;
43807;SDS011;29438;50.664;10.098;2023-05-07T04:06:21;18.00;;;10.40;;
43807;SDS011;29438;50.664;10.098;2023-05-07T04:08:47;21.05;;;11.57;;
43807;SDS011;29438;50.664;10.098;2023-05-07T04:11:12;20.77;;;11.20;;
43807;SDS011;29438;50.664;10.098;2023-05-07T04:13:38;20.80;;;11.85;;
43807;SDS011;29438;50.664;10.098;2023-05-07T04:16:04;20.67;;;11.38;;
43807;SDS011;29438;50.664;10.098;2023-05-07T04:18:30;19.52;;;11.05;;
43807;SDS011;29438;50.664;10.098;2023-05-07T04:20:55;19.67;;;10.95;;
43807;SDS011;29438;50.664;10.098;2023-05-07T04:23:21;18.63;;;10.77;;
43807;SDS011;29438;50.664;10.098;2023-05-07T04:25:46;19.77;;;10.43;;
43807;SDS011;29438;50.664;10.098;2023-05-07T04:28:12;19.75;;;10.90;;
43807;SDS011;29438;50.664;10.098;2023-05-07T04:30:38;18.83;;;10.95;;
43807;SDS011;29438;50.664;10.098;2023-05-07T04:33:03;18.92;;;10.88;;
43807;SDS011;29438;50.664;10.098;2023-05-07T04:35:29;18.42;;;10.48;;
43807;SDS011;29438;50.664;10.098;2023-05-07T04:37:55;16.52;;;10.63;;
43807;SDS011;29438;50.664;10.098;2023-05-07T04:40:20;17.67;;;10.20;;
43807;SDS011;29438;50.664;10.098;2023-05-07T04:42:46;19.88;;;10.52;;
43807;SDS011;29438;50.664;10.098;2023-05-07T04:45:11;19.23;;;10.45;;
43807;SDS011;29438;50.664;10.098;2023-05-07T04:47:37;18.00;;;10.70;;
43807;SDS011;29438;50.664;10.098;2023-05-07T04:50:03;17.70;;;10.55;;
43807;SDS011;29438;50.664;10.098;2023-05-07T04:52:29;20.33;;;11.10;;
43807;SDS011;29438;50.664;10.098;2023-05-07T04:54:55;17.33;;;10.27;;
43807;SDS011;29438;50.664;10.098;2023-05-07T04:57:20;18.75;;;10.60;;
43807;SDS011;29438;50.664;10.098;2023-05-07T04:59:46;17.27;;;10.18;;
43807;SDS011;29438;50.664;10.098;2023-05-07T05:02:11;16.92;;;9.73;;
43807;SDS011;29438;50.664;10.098;2023-05-07T05:04:37;17.23;;;10.07;;
43807;SDS011;29438;50.664;10.098;2023-05-07T05:07:02;17.60;;;10.60;;
43807;SDS011;29438;50.664;10.098;2023-05-07T05:09:29;16.85;;;10.07;;
43807;SDS011;29438;50.664;10.098;2023-05-07T05:11:55;15.98;;;9.60;;
43807;SDS011;29438;50.664;10.098;2023-05-07T05:14:20;16.80;;;10.00;;
43807;SDS011;29438;50.664;10.098;2023-05-07T05:16:46;18.00;;;10.48;;
43807;SDS011;29438;50.664;10.098;2023-05-07T05:19:11;16.02;;;9.98;;
43807;SDS011;29438;50.664;10.098;2023-05-07T05:21:37;17.25;;;9.90;;
43807;SDS011;29438;50.664;10.098;2023-05-07T05:24:02;15.98;;;9.38;;
43807;SDS011;29438;50.664;10.098;2023-05-07T05:26:28;16.15;;;9.60;;
43807;SDS011;29438;50.664;10.098;2023-05-07T05:28:53;16.65;;;9.55;;
43807;SDS011;29438;50.664;10.098;2023-05-07T05:31:19;17.48;;;9.75;;
43807;SDS011;29438;50.664;10.098;2023-05-07T05:33:44;15.10;;;9.32;;
43807;SDS011;29438;50.664;10.098;2023-05-07T05:36:10;15.65;;;9.52;;
43807;SDS011;29438;50.664;10.098;2023-05-07T05:38:37;15.25;;;9.57;;
43807;SDS011;29438;50.664;10.098;2023-05-07T05:41:03;15.70;;;9.80;;
43807;SDS011;29438;50.664;10.098;2023-05-07T05:43:28;14.07;;;8.52;;
43807;SDS011;29438;50.664;10.098;2023-05-07T05:45:55;16.35;;;9.00;;
43807;SDS011;29438;50.664;10.098;2023-05-07T05:48:21;14.55;;;8.75;;
43807;SDS011;29438;50.664;10.098;2023-05-07T05:50:46;14.40;;;8.65;;
43807;SDS011;29438;50.664;10.098;2023-05-07T05:53:11;15.02;;;9.10;;
43807;SDS011;29438;50.664;10.098;2023-05-07T05:55:37;16.27;;;9.02;;
43807;SDS011;29438;50.664;10.098;2023-05-07T05:58:03;14.35;;;9.18;;
43807;SDS011;29438;50.664;10.098;2023-05-07T06:00:28;15.02;;;9.45;;
43807;SDS011;29438;50.664;10.098;2023-05-07T06:02:54;15.15;;;8.80;;
43807;SDS011;29438;50.664;10.098;2023-05-07T06:05:20;15.57;;;9.27;;
43807;SDS011;29438;50.664;10.098;2023-05-07T06:07:45;13.43;;;8.60;;
43807;SDS011;29438;50.664;10.098;2023-05-07T06:10:11;15.70;;;8.82;;
43807;SDS011;29438;50.664;10.098;2023-05-07T06:12:36;15.40;;;8.63;;
43807;SDS011;29438;50.664;10.098;2023-05-07T06:15:02;17.83;;;9.95;;
43807;SDS011;29438;50.664;10.098;2023-05-07T06:17:28;19.10;;;10.30;;
43807;SDS011;29438;50.664;10.098;2023-05-07T06:19:53;15.77;;;9.57;;
43807;SDS011;29438;50.664;10.098;2023-05-07T06:22:19;17.13;;;9.73;;
43807;SDS011;29438;50.664;10.098;2023-05-07T06:24:44;18.42;;;10.52;;
43807;SDS011;29438;50.664;10.098;2023-05-07T06:27:11;17.30;;;10.35;;
43807;SDS011;29438;50.664;10.098;2023-05-07T06:29:36;17.23;;;9.98;;
43807;SDS011;29438;50.664;10.098;2023-05-07T06:32:08;18.27;;;9.73;;
43807;SDS011;29438;50.664;10.098;2023-05-07T06:34:36;16.98;;;10.00;;
43807;SDS011;29438;50.664;10.098;2023-05-07T06:37:02;16.30;;;9.65;;
43807;SDS011;29438;50.664;10.098;2023-05-07T06:39:27;15.18;;;9.07;;
43807;SDS011;29438;50.664;10.098;2023-05-07T06:41:53;16.50;;;9.77;;
43807;SDS011;29438;50.664;10.098;2023-05-07T06:44:18;15.23;;;9.05;;
43807;SDS011;29438;50.664;10.098;2023-05-07T06:46:44;17.88;;;9.48;;
43807;SDS011;29438;50.664;10.098;2023-05-07T06:49:10;16.60;;;8.95;;
43807;SDS011;29438;50.664;10.098;2023-05-07T06:51:35;16.20;;;9.25;;
43807;SDS011;29438;50.664;10.098;2023-05-07T06:54:01;18.25;;;10.13;;
43807;SDS011;29438;50.664;10.098;2023-05-07T06:56:26;17.77;;;10.57;;
43807;SDS011;29438;50.664;10.098;2023-05-07T06:58:52;16.63;;;9.98;;
43807;SDS011;29438;50.664;10.098;2023-05-07T07:01:17;15.80;;;9.15;;
43807;SDS011;29438;50.664;10.098;2023-05-07T07:03:43;14.15;;;8.90;;
43807;SDS011;29438;50.664;10.098;2023-05-07T07:06:08;14.25;;;8.40;;
43807;SDS011;29438;50.664;10.098;2023-05-07T07:08:34;14.45;;;8.82;;
43807;SDS011;29438;50.664;10.098;2023-05-07T07:11:00;13.60;;;8.15;;
43807;SDS011;29438;50.664;10.098;2023-05-07T07:13:25;14.20;;;8.63;;
43807;SDS011;29438;50.664;10.098;2023-05-07T07:15:51;14.75;;;8.88;;
43807;SDS011;29438;50.664;10.098;2023-05-07T07:18:18;12.75;;;8.02;;
43807;SDS011;29438;50.664;10.098;2023-05-07T07:20:43;15.75;;;8.82;;
43807;SDS011;29438;50.664;10.098;2023-05-07T07:23:09;14.48;;;8.25;;
43807;SDS011;29438;50.664;10.098;2023-05-07T07:25:35;13.52;;;8.05;;
43807;SDS011;29438;50.664;10.098;2023-05-07T07:28:00;12.35;;;7.88;;
43807;SDS011;29438;50.664;10.098;2023-05-07T07:30:26;12.38;;;7.60;;
43807;SDS011;29438;50.664;10.098;2023-05-07T07:32:52;14.18;;;7.43;;
43807;SDS011;29438;50.664;10.098;2023-05-07T07:35:17;11.57;;;7.45;;
43807;SDS011;29438;50.664;10.098;2023-05-07T07:37:43;12.27;;;7.22;;
43807;SDS011;29438;50.664;10.098;2023-05-07T07:40:09;12.38;;;7.60;;
43807;SDS011;29438;50.664;10.098;2023-05-07T07:42:36;13.30;;;7.18;;
43807;SDS011;29438;50.664;10.098;2023-05-07T07:45:01;11.20;;;6.68;;
43807;SDS011;29438;50.664;10.098;2023-05-07T07:47:28;10.77;;;7.10;;
43807;SDS011;29438;50.664;10.098;2023-05-07T07:49:53;11.70;;;6.70;;
43807;SDS011;29438;50.664;10.098;2023-05-07T07:52:19;12.10;;;7.75;;
43807;SDS011;29438;50.664;10.098;2023-05-07T07:54:44;10.30;;;6.55;;
43807;SDS011;29438;50.664;10.098;2023-05-07T07:57:10;11.07;;;6.65;;
43807;SDS011;29438;50.664;10.098;2023-05-07T07:59:36;11.35;;;7.15;;
43807;SDS011;29438;50.664;10.098;2023-05-07T08:02:01;11.52;;;6.65;;
43807;SDS011;29438;50.664;10.098;2023-05-07T08:04:27;12.73;;;7.38;;
43807;SDS011;29438;50.664;10.098;2023-05-07T08:06:52;11.88;;;6.90;;
43807;SDS011;29438;50.664;10.098;2023-05-07T08:09:19;11.40;;;7.03;;
43807;SDS011;29438;50.664;10.098;2023-05-07T08:11:45;12.60;;;7.38;;
43807;SDS011;29438;50.664;10.098;2023-05-07T08:14:11;11.52;;;7.10;;
43807;SDS011;29438;50.664;10.098;2023-05-07T08:16:36;13.00;;;7.50;;
43807;SDS011;29438;50.664;10.098;2023-05-07T08:19:02;12.10;;;8.00;;
43807;SDS011;29438;50.664;10.098;2023-05-07T08:21:27;12.48;;;7.53;;
43807;SDS011;29438;50.664;10.098;2023-05-07T08:23:53;12.77;;;7.38;;
43807;SDS011;29438;50.664;10.098;2023-05-07T08:26:18;12.77;;;7.93;;
43807;SDS011;29438;50.664;10.098;2023-05-07T08:28:44;13.68;;;7.57;;
43807;SDS011;29438;50.664;10.098;2023-05-07T08:31:09;12.15;;;7.05;;
43807;SDS011;29438;50.664;10.098;2023-05-07T08:33:35;11.15;;;6.63;;
43807;SDS011;29438;50.664;10.098;2023-05-07T08:36:00;10.48;;;6.38;;
43807;SDS011;29438;50.664;10.098;2023-05-07T08:38:26;10.73;;;6.97;;
43807;SDS011;29438;50.664;10.098;2023-05-07T08:40:51;12.13;;;6.97;;
43807;SDS011;29438;50.664;10.098;2023-05-07T08:43:18;10.48;;;6.68;;
43807;SDS011;29438;50.664;10.098;2023-05-07T08:45:44;11.35;;;6.68;;
43807;SDS011;29438;50.664;10.098;2023-05-07T08:48:17;9.95;;;6.40;;
43807;SDS011;29438;50.664;10.098;2023-05-07T08:50:42;10.75;;;6.97;;
43807;SDS011;29438;50.664;10.098;2023-05-07T08:53:08;10.77;;;7.30;;
43807;SDS011;29438;50.664;10.098;2023-05-07T08:55:34;11.68;;;6.50;;
43807;SDS011;29438;50.664;10.098;2023-05-07T08:57:59;10.07;;;6.68;;
43807;SDS011;29438;50.664;10.098;2023-05-07T09:00:26;11.73;;;6.68;;
43807;SDS011;29438;50.664;10.098;2023-05-07T09:02:52;10.25;;;6.55;;
43807;SDS011;29438;50.664;10.098;2023-05-07T09:05:18;12.05;;;6.20;;
43807;SDS011;29438;50.664;10.098;2023-05-07T09:07:44;10.13;;;5.97;;
43807;SDS011;29438;50.664;10.098;2023-05-07T09:10:11;9.88;;;6.22;;
43807;SDS011;29438;50.664;10.098;2023-05-07T09:12:36;9.80;;;5.50;;
43807;SDS011;29438;50.664;10.098;2023-05-07T09:15:02;9.77;;;5.90;;
43807;SDS011;29438;50.664;10.098;2023-05-07T09:17:28;9.15;;;5.65;;
43807;SDS011;29438;50.664;10.098;2023-05-07T09:19:54;7.78;;;5.05;;
43807;SDS011;29438;50.664;10.098;2023-05-07T09:22:20;7.35;;;4.80;;
43807;SDS011;29438;50.664;10.098;2023-05-07T09:24:49;9.68;;;4.93;;
43807;SDS011;29438;50.664;10.098;2023-05-07T09:27:15;6.40;;;4.45;;
43807;SDS011;29438;50.664;10.098;2023-05-07T09:29:43;7.72;;;4.28;;
43807;SDS011;29438;50.664;10.098;2023-05-07T09:32:09;7.20;;;4.40;;
43807;SDS011;29438;50.664;10.098;2023-05-07T09:34:34;6.93;;;4.60;;
43807;SDS011;29438;50.664;10.098;2023-05-07T09:37:01;7.68;;;4.95;;
43807;SDS011;29438;50.664;10.098;2023-05-07T09:39:44;7.40;;;4.70;;
43807;SDS011;29438;50.664;10.098;2023-05-07T09:42:11;6.13;;;4.20;;
43807;SDS011;29438;50.664;10.098;2023-05-07T09:44:37;6.13;;;4.18;;
43807;SDS011;29438;50.664;10.098;2023-05-07T09:47:06;6.00;;;3.88;;
43807;SDS011;29438;50.664;10.098;2023-05-07T09:49:34;5.35;;;3.83;;
43807;SDS011;29438;50.664;10.098;2023-05-07T09:52:04;6.45;;;3.70;;
43807;SDS011;29438;50.664;10.098;2023-05-07T09:54:31;6.03;;;3.72;;
43807;SDS011;29438;50.664;10.098;2023-05-07T09:56:58;5.90;;;4.00;;
43807;SDS011;29438;50.664;10.098;2023-05-07T09:59:27;6.75;;;4.30;;
43807;SDS011;29438;50.664;10.098;2023-05-07T10:01:56;7.50;;;3.83;;
43807;SDS011;29438;50.664;10.098;2023-05-07T10:04:23;7.15;;;4.60;;
43807;SDS011;29438;50.664;10.098;2023-05-07T10:06:50;8.48;;;5.18;;
43807;SDS011;29438;50.664;10.098;2023-05-07T10:09:17;7.90;;;5.05;;
43807;SDS011;29438;50.664;10.098;2023-05-07T10:11:43;7.97;;;4.80;;
43807;SDS011;29438;50.664;10.098;2023-05-07T10:14:09;7.97;;;5.18;;
43807;SDS011;29438;50.664;10.098;2023-05-07T10:16:35;7.78;;;5.00;;
43807;SDS011;29438;50.664;10.098;2023-05-07T10:19:02;8.73;;;5.25;;
43807;SDS011;29438;50.664;10.098;2023-05-07T10:21:29;9.23;;;5.18;;
43807;SDS011;29438;50.664;10.098;2023-05-07T10:24:03;9.55;;;4.80;;
43807;SDS011;29438;50.664;10.098;2023-05-07T10:26:31;7.63;;;4.80;;
43807;SDS011;29438;50.664;10.098;2023-05-07T10:28:59;7.28;;;4.80;;
43807;SDS011;29438;50.664;10.098;2023-05-07T10:31:44;8.05;;;4.78;;
43807;SDS011;29438;50.664;10.098;2023-05-07T10:34:24;7.38;;;4.75;;
43807;SDS011;29438;50.664;10.098;2023-05-07T10:36:54;6.55;;;4.30;;
43807;SDS011;29438;50.664;10.098;2023-05-07T10:39:21;10.43;;;5.53;;
43807;SDS011;29438;50.664;10.098;2023-05-07T10:41:47;6.95;;;4.28;;
43807;SDS011;29438;50.664;10.098;2023-05-07T10:44:26;6.03;;;3.53;;
43807;SDS011;29438;50.664;10.098;2023-05-07T10:47:06;5.60;;;3.78;;
43807;SDS011;29438;50.664;10.098;2023-05-07T10:50:20;5.90;;;3.65;;
43807;SDS011;29438;50.664;10.098;2023-05-07T10:52:29;8.43;;;4.20;;
43807;SDS011;29438;50.664;10.098;2023-05-07T10:55:18;8.38;;;4.75;;
43807;SDS011;29438;50.664;10.098;2023-05-07T10:57:46;6.97;;;4.35;;
43807;SDS011;29438;50.664;10.098;2023-05-07T11:05:24;7.75;;;4.43;;
43807;SDS011;29438;50.664;10.098;2023-05-07T11:07:59;7.47;;;4.63;;
43807;SDS011;29438;50.664;10.098;2023-05-07T11:13:19;7.18;;;4.13;;
43807;SDS011;29438;50.664;10.098;2023-05-07T11:16:27;9.40;;;4.93;;
43807;SDS011;29438;50.664;10.098;2023-05-07T11:18:53;7.40;;;4.80;;
43807;SDS011;29438;50.664;10.098;2023-05-07T11:21:39;7.43;;;4.43;;
43807;SDS011;29438;50.664;10.098;2023-05-07T11:24:06;6.57;;;4.25;;
43807;SDS011;29438;50.664;10.098;2023-05-07T11:29:19;7.10;;;4.68;;
43807;SDS011;29438;50.664;10.098;2023-05-07T11:31:52;7.53;;;4.28;;
43807;SDS011;29438;50.664;10.098;2023-05-07T11:34:22;6.88;;;4.60;;
43807;SDS011;29438;50.664;10.098;2023-05-07T11:36:49;7.30;;;4.30;;
43807;SDS011;29438;50.664;10.098;2023-05-07T11:41:50;6.25;;;3.97;;
43807;SDS011;29438;50.664;10.098;2023-05-07T11:44:15;6.68;;;4.10;;
43807;SDS011;29438;50.664;10.098;2023-05-07T11:46:43;6.32;;;3.95;;
43807;SDS011;29438;50.664;10.098;2023-05-07T11:49:10;6.10;;;3.70;;
43807;SDS011;29438;50.664;10.098;2023-05-07T11:51:35;6.53;;;3.97;;
43807;SDS011;29438;50.664;10.098;2023-05-07T11:54:03;6.40;;;3.75;;
43807;SDS011;29438;50.664;10.098;2023-05-07T11:56:33;6.25;;;3.80;;
43807;SDS011;29438;50.664;10.098;2023-05-07T11:59:00;6.22;;;3.47;;
43807;SDS011;29438;50.664;10.098;2023-05-07T12:01:25;7.78;;;4.20;;
43807;SDS011;29438;50.664;10.098;2023-05-07T12:03:51;7.95;;;3.70;;
43807;SDS011;29438;50.664;10.098;2023-05-07T12:06:18;5.55;;;3.20;;
43807;SDS011;29438;50.664;10.098;2023-05-07T12:08:44;5.35;;;3.35;;
43807;SDS011;29438;50.664;10.098;2023-05-07T12:11:12;6.15;;;3.50;;
43807;SDS011;29438;50.664;10.098;2023-05-07T12:13:41;4.75;;;3.28;;
43807;SDS011;29438;50.664;10.098;2023-05-07T12:16:07;7.30;;;3.58;;
43807;SDS011;29438;50.664;10.098;2023-05-07T12:18:33;5.00;;;3.08;;
43807;SDS011;29438;50.664;10.098;2023-05-07T12:21:00;5.55;;;3.20;;
43807;SDS011;29438;50.664;10.098;2023-05-07T12:23:26;5.78;;;3.33;;
43807;SDS011;29438;50.664;10.098;2023-05-07T12:25:51;5.03;;;3.00;;
43807;SDS011;29438;50.664;10.098;2023-05-07T12:28:17;4.90;;;3.20;;
43807;SDS011;29438;50.664;10.098;2023-05-07T12:30:44;4.88;;;3.10;;
43807;SDS011;29438;50.664;10.098;2023-05-07T12:33:11;4.95;;;2.92;;
43807;SDS011;29438;50.664;10.098;2023-05-07T12:35:37;5.15;;;3.28;;
43807;SDS011;29438;50.664;10.098;2023-05-07T12:38:13;5.80;;;3.58;;
43807;SDS011;29438;50.664;10.098;2023-05-07T12:40:44;4.78;;;3.15;;
43807;SDS011;29438;50.664;10.098;2023-05-07T12:43:15;5.35;;;3.08;;
43807;SDS011;29438;50.664;10.098;2023-05-07T12:45:42;5.95;;;3.22;;
43807;SDS011;29438;50.664;10.098;2023-05-07T12:48:09;4.93;;;3.40;;
43807;SDS011;29438;50.664;10.098;2023-05-07T12:50:35;6.20;;;3.25;;
43807;SDS011;29438;50.664;10.098;2023-05-07T12:53:03;4.72;;;3.20;;
43807;SDS011;29438;50.664;10.098;2023-05-07T12:55:31;6.45;;;3.42;;
43807;SDS011;29438;50.664;10.098;2023-05-07T12:57:57;5.95;;;3.65;;
43807;SDS011;29438;50.664;10.098;2023-05-07T13:00:59;5.95;;;3.20;;
43807;SDS011;29438;50.664;10.098;2023-05-07T13:03:21;6.05;;;3.50;;
43807;SDS011;29438;50.664;10.098;2023-05-07T13:05:51;5.95;;;3.65;;
43807;SDS011;29438;50.664;10.098;2023-05-07T13:08:24;5.82;;;3.20;;
43807;SDS011;29438;50.664;10.098;2023-05-07T13:10:50;5.10;;;3.40;;
43807;SDS011;29438;50.664;10.098;2023-05-07T13:13:15;6.50;;;3.60;;
43807;SDS011;29438;50.664;10.098;2023-05-07T13:15:41;5.85;;;3.30;;
43807;SDS011;29438;50.664;10.098;2023-05-07T13:18:06;5.18;;;3.50;;
43807;SDS011;29438;50.664;10.098;2023-05-07T13:20:32;7.45;;;4.07;;
43807;SDS011;29438;50.664;10.098;2023-05-07T13:22:57;6.53;;;3.72;;
43807;SDS011;29438;50.664;10.098;2023-05-07T13:25:22;6.20;;;3.75;;
43807;SDS011;29438;50.664;10.098;2023-05-07T13:27:48;6.70;;;4.10;;
43807;SDS011;29438;50.664;10.098;2023-05-07T13:30:13;6.60;;;3.75;;
43807;SDS011;29438;50.664;10.098;2023-05-07T13:32:39;6.95;;;3.95;;
43807;SDS011;29438;50.664;10.098;2023-05-07T13:35:05;6.90;;;3.95;;
43807;SDS011;29438;50.664;10.098;2023-05-07T13:37:31;6.13;;;3.75;;
43807;SDS011;29438;50.664;10.098;2023-05-07T13:39:56;7.82;;;4.43;;
43807;SDS011;29438;50.664;10.098;2023-05-07T13:42:22;7.30;;;4.22;;
43807;SDS011;29438;50.664;10.098;2023-05-07T13:44:47;6.38;;;3.50;;
43807;SDS011;29438;50.664;10.098;2023-05-07T13:47:13;8.25;;;3.45;;
43807;SDS011;29438;50.664;10.098;2023-05-07T13:49:38;7.60;;;4.10;;
43807;SDS011;29438;50.664;10.098;2023-05-07T13:52:04;5.75;;;3.55;;
43807;SDS011;29438;50.664;10.098;2023-05-07T13:54:30;5.45;;;3.70;;
43807;SDS011;29438;50.664;10.098;2023-05-07T13:56:56;6.20;;;3.35;;
43807;SDS011;29438;50.664;10.098;2023-05-07T13:59:21;6.63;;;3.55;;
43807;SDS011;29438;50.664;10.098;2023-05-07T14:01:47;5.93;;;3.67;;
43807;SDS011;29438;50.664;10.098;2023-05-07T14:04:12;4.93;;;3.10;;
43807;SDS011;29438;50.664;10.098;2023-05-07T14:06:38;5.47;;;3.33;;
43807;SDS011;29438;50.664;10.098;2023-05-07T14:09:04;5.03;;;2.60;;
43807;SDS011;29438;50.664;10.098;2023-05-07T14:11:29;5.82;;;3.40;;
43807;SDS011;29438;50.664;10.098;2023-05-07T14:13:55;6.03;;;3.05;;
43807;SDS011;29438;50.664;10.098;2023-05-07T14:16:21;6.10;;;3.63;;
43807;SDS011;29438;50.664;10.098;2023-05-07T14:18:47;6.05;;;3.10;;
43807;SDS011;29438;50.664;10.098;2023-05-07T14:21:12;5.68;;;3.28;;
43807;SDS011;29438;50.664;10.098;2023-05-07T14:23:38;4.93;;;2.70;;
43807;SDS011;29438;50.664;10.098;2023-05-07T14:26:04;5.72;;;3.20;;
43807;SDS011;29438;50.664;10.098;2023-05-07T14:28:29;8.45;;;3.38;;
43807;SDS011;29438;50.664;10.098;2023-05-07T14:30:56;4.80;;;3.10;;
43807;SDS011;29438;50.664;10.098;2023-05-07T14:33:21;5.18;;;3.20;;
43807;SDS011;29438;50.664;10.098;2023-05-07T14:35:47;6.05;;;3.00;;